Aviation Digital Data Service (ADDS)

Output produced by METARs form (0521 UTC 25 June 2017)
found at http://aviationweather.gov/adds/metars/
 
KACK 242323Z 2500/2524 26014KT P6SM SCT070 BKN250 
     FM250700 29004KT P6SM FEW250 
     FM251700 19009KT P6SM FEW070